Time;durP1;ratioP1;P1;durP2;ratioP2;P2;SDS_P1;SDS_P2;PMS_P1;PMS_P2;Temp;Humidity;BMP_temperature;BMP_pressure;BME280_temperature;BME280_humidity;BME280_pressure;Samples;Min_cycle;Max_cycle;Signal;HPM_P1;HPM_P2
2023/01/18 00:00:38;;;;;;;3.22;0.93;;;3.30;99.90;;;;;;5098341;27;20093;-83
2023/01/18 00:03:07;;;;;;;3.00;0.88;;;3.90;99.90;;;;;;5104467;27;20396;-82
2023/01/18 00:05:33;;;;;;;4.35;1.40;;;3.20;99.90;;;;;;5102721;27;20141;-83
2023/01/18 00:07:59;;;;;;;2.13;0.95;;;3.20;99.90;;;;;;5099877;27;20043;-83
2023/01/18 00:10:26;;;;;;;4.07;0.63;;;3.20;99.90;;;;;;5088018;27;20095;-81
2023/01/18 00:12:52;;;;;;;2.80;0.70;;;3.20;99.90;;;;;;5095977;27;20074;-82
2023/01/18 00:15:18;;;;;;;1.92;0.77;;;3.40;99.90;;;;;;5114600;27;20067;-82
2023/01/18 00:17:50;;;;;;;2.70;0.70;;;3.20;99.90;;;;;;5087475;27;20533;-81
2023/01/18 00:20:18;;;;;;;4.20;0.80;;;3.20;99.90;;;;;;5088905;27;20049;-81
2023/01/18 00:22:44;;;;;;;2.67;0.90;;;3.10;99.90;;;;;;5104852;27;20054;-79
2023/01/18 00:25:10;;;;;;;2.88;0.80;;;3.10;99.90;;;;;;5091254;27;20043;-80
2023/01/18 00:27:43;;;;;;;4.70;0.70;;;3.20;99.90;;;;;;5089668;27;20081;-83
2023/01/18 00:30:09;;;;;;;4.28;0.98;;;3.30;99.90;;;;;;5122110;27;20050;-82
2023/01/18 00:32:35;;;;;;;3.97;0.82;;;3.20;99.90;;;;;;5090406;27;20082;-85
2023/01/18 00:35:06;;;;;;;2.00;0.80;;;2.10;99.90;;;;;;5102135;27;20035;-82
2023/01/18 00:37:32;;;;;;;1.52;0.63;;;3.20;99.90;;;;;;5100094;27;20552;-82
2023/01/18 00:39:58;;;;;;;2.30;0.90;;;3.20;99.90;;;;;;5085911;27;20195;-84
2023/01/18 00:45:12;;;;;;;2.17;0.90;;;3.20;99.90;;;;;;5121017;27;20039;-81
2023/01/18 00:47:37;;;;;;;2.63;0.65;;;3.20;99.90;;;;;;5083734;27;20103;-84
2023/01/18 00:50:04;;;;;;;2.30;0.82;;;3.20;99.90;;;;;;5085490;27;20070;-81
2023/01/18 00:52:30;;;;;;;5.03;0.85;;;3.20;99.90;;;;;;5106163;27;20047;-82
2023/01/18 00:54:55;;;;;;;3.70;0.70;;;3.20;99.90;;;;;;5090328;27;20069;-81
2023/01/18 00:57:22;;;;;;;1.27;0.63;;;1.90;99.90;;;;;;5097908;27;20548;-81
2023/01/18 00:59:47;;;;;;;4.38;0.82;;;3.20;99.90;;;;;;5087065;27;20042;-81
2023/01/18 01:02:13;;;;;;;2.15;0.70;;;1.70;99.90;;;;;;5089216;27;20134;-81
2023/01/18 01:07:24;;;;;;;3.53;1.15;;;3.20;99.90;;;;;;5117937;27;20070;-82
2023/01/18 01:09:50;;;;;;;3.10;0.90;;;3.20;99.90;;;;;;5097553;27;20050;-81
2023/01/18 01:26:06;;;;;;;2.42;0.80;;;3.20;99.90;;;;;;5115437;27;20406;-83
2023/01/18 01:28:42;;;;;;;6.35;1.05;;;3.20;99.90;;;;;;5104249;27;20042;-82
2023/01/18 01:31:13;;;;;;;3.65;1.15;;;3.20;99.90;;;;;;5103568;27;20039;-81
2023/01/18 01:33:39;;;;;;;2.05;1.00;;;3.20;99.90;;;;;;5098764;27;20062;-80
2023/01/18 01:36:14;;;;;;;5.82;1.35;;;3.30;99.90;;;;;;5103088;27;20047;-81
2023/01/18 01:38:40;;;;;;;4.50;1.23;;;3.20;99.90;;;;;;5103681;27;20050;-81
2023/01/18 01:41:24;;;;;;;6.30;1.10;;;3.20;99.90;;;;;;5073595;27;20051;-84
2023/01/18 01:44:27;;;;;;;2.40;1.05;;;3.30;99.90;;;;;;5105979;27;20039;-82
2023/01/18 01:47:03;;;;;;;4.15;1.20;;;3.20;99.90;;;;;;5096932;27;20047;-81
2023/01/18 01:49:32;;;;;;;5.47;1.60;;;3.20;99.90;;;;;;5098846;27;20035;-81
2023/01/18 01:52:19;;;;;;;4.15;1.13;;;3.20;99.90;;;;;;5099702;27;20046;-81
2023/01/18 01:55:07;;;;;;;3.35;1.30;;;3.20;99.90;;;;;;5096295;27;20063;-84
2023/01/18 01:57:43;;;;;;;3.38;1.20;;;3.30;99.90;;;;;;5113723;27;20133;-81
2023/01/18 02:00:12;;;;;;;;;;;3.30;99.90;;;;;;5097465;27;20042;-81
2023/01/18 02:02:40;;;;;;;2.88;1.35;;;3.40;99.90;;;;;;5101832;27;19941;-81
2023/01/18 02:05:08;;;;;;;5.72;1.23;;;3.20;99.90;;;;;;5102624;27;20045;-81
2023/01/18 02:07:37;;;;;;;4.65;2.08;;;2.50;99.90;;;;;;5103812;27;20587;-81
2023/01/18 02:10:05;;;;;;;2.60;1.20;;;3.10;99.90;;;;;;5100109;27;20047;-81
2023/01/18 02:12:32;;;;;;;3.65;1.20;;;3.10;99.90;;;;;;5102477;27;20043;-81
2023/01/18 02:14:58;;;;;;;5.88;1.50;;;3.10;99.90;;;;;;5084202;27;20046;-81
2023/01/18 02:17:55;;;;;;;3.50;1.42;;;3.30;99.90;;;;;;5102297;27;20552;-81
2023/01/18 02:20:39;;;;;;;5.20;1.27;;;3.10;99.90;;;;;;5110060;27;20038;-82
2023/01/18 02:23:53;;;;;;;5.45;1.30;;;3.00;99.90;;;;;;5114823;27;20371;-80
2023/01/18 02:26:58;;;;;;;7.43;1.48;;;3.10;99.90;;;;;;5086909;27;20074;-80
2023/01/18 02:29:29;;;;;;;6.03;1.92;;;3.80;99.90;;;;;;5113250;27;20186;-79
2023/01/18 02:32:10;;;;;;;7.78;1.42;;;1.60;99.90;;;;;;5097842;27;20418;-81
2023/01/18 02:34:39;;;;;;;5.25;1.40;;;3.10;99.90;;;;;;5113483;27;20062;-83
2023/01/18 02:37:57;;;;;;;4.13;1.15;;;3.20;99.90;;;;;;5101017;27;20050;-83
2023/01/18 02:40:23;;;;;;;4.70;1.52;;;3.10;99.90;;;;;;5031032;27;20141;-81
2023/01/18 02:48:40;;;;;;;3.88;1.30;;;3.30;99.90;;;;;;5112018;27;20039;-79
2023/01/18 02:51:06;;;;;;;4.93;1.20;;;3.30;99.90;;;;;;5114146;27;20047;-82
2023/01/18 02:53:37;;;;;;;6.20;1.20;;;3.40;99.90;;;;;;5067649;27;20103;-82
2023/01/18 02:56:15;;;;;;;4.47;1.23;;;3.30;99.90;;;;;;5098131;27;20052;-80
2023/01/18 02:58:48;;;;;;;4.55;1.20;;;3.30;99.90;;;;;;5092161;27;20058;-81
2023/01/18 03:01:33;;;;;;;6.90;1.52;;;3.30;99.90;;;;;;5096500;27;20065;-80
2023/01/18 03:04:16;;;;;;;4.10;1.05;;;3.20;99.90;;;;;;5101927;27;20035;-81
2023/01/18 03:06:50;;;;;;;3.20;1.15;;;3.20;99.90;;;;;;5098551;27;20233;-81
2023/01/18 03:09:18;;;;;;;4.78;1.20;;;3.20;99.90;;;;;;5102195;27;20099;-80
2023/01/18 03:11:55;;;;;;;3.55;1.38;;;3.20;99.90;;;;;;5065120;27;20038;-81
2023/01/18 03:15:03;;;;;;;2.92;0.90;;;3.20;99.90;;;;;;5102757;27;20436;-81
2023/01/18 03:17:40;;;;;;;4.43;1.30;;;3.30;99.90;;;;;;5105748;27;20138;-81
2023/01/18 03:20:13;;;;;;;3.58;1.40;;;3.20;99.90;;;;;;5103513;27;20046;-80
2023/01/18 03:25:40;;;;;;;4.80;1.55;;;3.20;99.90;;;;;;5113766;27;20046;-81
2023/01/18 03:34:06;;;;;;;3.63;1.30;;;4.00;99.90;;;;;;5109964;27;20046;-82
2023/01/18 03:36:36;;;;;;;3.97;1.48;;;3.30;99.90;;;;;;5113323;27;20054;-80
2023/01/18 03:39:06;;;;;;;3.95;1.25;;;3.50;99.90;;;;;;5116829;27;20047;-80
2023/01/18 03:41:40;;;;;;;4.20;1.67;;;3.40;99.90;;;;;;5102734;27;20042;-81
2023/01/18 03:44:12;;;;;;;3.25;1.33;;;3.50;99.90;;;;;;5129392;27;20065;-79
2023/01/18 03:46:39;;;;;;;6.20;1.20;;;3.30;99.90;;;;;;5096665;27;20043;-82
2023/01/18 03:49:09;;;;;;;5.50;1.30;;;3.50;99.90;;;;;;5130086;27;20045;-83
2023/01/18 03:52:01;;;;;;;3.00;1.20;;;3.30;99.90;;;;;;5102441;27;20071;-82
2023/01/18 03:54:35;;;;;;;4.60;1.30;;;3.30;99.90;;;;;;5105936;27;20066;-81
2023/01/18 03:57:17;;;;;;;4.03;1.13;;;3.20;99.90;;;;;;5097979;27;20041;-80
2023/01/18 03:59:45;;;;;;;2.08;1.30;;;3.20;99.90;;;;;;5102312;27;20058;-83
2023/01/18 04:02:10;;;;;;;6.38;1.60;;;3.20;99.90;;;;;;5084383;27;20038;-80
2023/01/18 04:04:36;;;;;;;4.22;1.40;;;3.20;99.90;;;;;;5101060;27;20106;-81
2023/01/18 04:07:02;;;;;;;3.17;1.40;;;3.20;99.90;;;;;;5091895;27;20138;-81
2023/01/18 04:09:28;;;;;;;3.53;1.20;;;3.20;99.90;;;;;;5101636;27;20042;-83
2023/01/18 04:11:54;;;;;;;2.67;1.00;;;3.10;99.90;;;;;;5068951;27;20471;-81
2023/01/18 04:14:20;;;;;;;4.95;1.35;;;4.10;99.90;;;;;;5102759;27;20050;-80
2023/01/18 04:16:46;;;;;;;5.05;1.52;;;;;;;;;;5115915;27;20036;-79
2023/01/18 04:19:12;;;;;;;3.42;1.25;;;3.30;99.90;;;;;;5100177;27;20035;-79
2023/01/18 04:21:37;;;;;;;2.50;1.20;;;3.30;99.90;;;;;;5098120;27;20053;-79
2023/01/18 04:24:04;;;;;;;5.63;1.20;;;2.50;99.90;;;;;;5068664;27;20051;-79
2023/01/18 04:26:32;;;;;;;3.67;1.25;;;3.40;99.90;;;;;;5097841;27;20063;-81
2023/01/18 04:28:59;;;;;;;3.13;1.30;;;3.40;99.90;;;;;;5105020;27;20243;-83
2023/01/18 04:31:25;;;;;;;3.22;1.10;;;3.30;99.90;;;;;;5100956;27;20508;-80
2023/01/18 04:33:53;;;;;;;3.72;1.00;;;3.30;99.90;;;;;;5087166;27;20544;-80
2023/01/18 04:36:20;;;;;;;3.13;1.00;;;3.30;99.90;;;;;;5107920;27;20034;-81
2023/01/18 04:38:46;;;;;;;5.63;1.35;;;3.60;99.90;;;;;;5095890;27;20483;-80
2023/01/18 04:41:11;;;;;;;4.22;1.35;;;1.90;99.90;;;;;;5085461;27;20064;-81
2023/01/18 04:43:37;;;;;;;2.08;1.05;;;3.50;99.90;;;;;;5090520;27;20042;-79
2023/01/18 04:46:03;;;;;;;3.80;1.27;;;1.80;99.90;;;;;;5099336;27;20053;-82
2023/01/18 04:48:29;;;;;;;4.78;1.30;;;3.30;99.90;;;;;;5098523;27;20546;-80
2023/01/18 04:50:55;;;;;;;5.05;1.50;;;3.30;99.90;;;;;;5081301;27;20084;-82
2023/01/18 04:53:22;;;;;;;5.68;1.77;;;3.40;99.90;;;;;;5095821;27;20098;-79
2023/01/18 04:55:48;;;;;;;2.90;1.48;;;3.40;99.90;;;;;;5114142;27;20077;-79
2023/01/18 04:58:14;;;;;;;6.22;1.55;;;3.50;99.90;;;;;;5096895;27;20054;-80
2023/01/18 05:00:40;;;;;;;3.25;1.60;;;3.50;99.90;;;;;;5097306;27;20035;-82
2023/01/18 05:03:10;;;;;;;6.82;1.67;;;3.50;99.90;;;;;;5068116;27;20053;-81
2023/01/18 05:05:36;;;;;;;8.35;1.35;;;4.60;99.90;;;;;;5112955;27;20055;-81
2023/01/18 05:08:02;;;;;;;5.38;1.60;;;3.50;99.90;;;;;;5119996;27;20061;-83
2023/01/18 05:10:28;;;;;;;5.95;1.60;;;3.40;99.90;;;;;;5063388;27;20047;-82
2023/01/18 05:12:54;;;;;;;3.63;1.48;;;3.40;99.90;;;;;;5097951;27;20547;-82
2023/01/18 05:15:20;;;;;;;6.60;1.70;;;3.40;99.90;;;;;;5112987;27;20046;-81
2023/01/18 05:17:49;;;;;;;6.07;1.58;;;3.40;99.90;;;;;;5107595;27;20460;-80
2023/01/18 05:20:15;;;;;;;4.00;1.55;;;3.40;99.90;;;;;;5085542;27;20084;-80
2023/01/18 05:22:40;;;;;;;3.20;1.35;;;3.40;99.90;;;;;;5098212;27;20476;-82
2023/01/18 05:25:06;;;;;;;5.63;1.75;;;3.40;99.90;;;;;;5069785;27;20130;-80
2023/01/18 05:27:32;;;;;;;5.82;1.80;;;3.50;99.90;;;;;;5082017;27;20058;-82
2023/01/18 05:29:58;;;;;;;6.95;1.73;;;3.40;99.90;;;;;;5102948;27;20046;-79
2023/01/18 05:32:24;;;;;;;6.60;1.60;;;3.50;99.90;;;;;;5082729;27;20119;-82
2023/01/18 05:34:50;;;;;;;5.32;1.70;;;3.40;99.90;;;;;;5079971;27;20253;-82
2023/01/18 05:37:16;;;;;;;4.72;1.58;;;3.40;99.90;;;;;;5085719;27;20067;-80
2023/01/18 05:39:42;;;;;;;4.85;1.63;;;3.30;99.90;;;;;;5096275;27;20398;-82
2023/01/18 05:42:07;;;;;;;4.90;1.40;;;3.40;99.90;;;;;;5066706;27;20047;-81
2023/01/18 05:44:33;;;;;;;4.75;1.70;;;3.40;99.90;;;;;;5080393;27;20050;-79
2023/01/18 05:47:00;;;;;;;5.57;1.88;;;3.60;99.90;;;;;;5100625;27;20042;-80
2023/01/18 05:49:27;;;;;;;4.75;2.08;;;3.50;99.90;;;;;;5084498;27;20051;-81
2023/01/18 05:51:53;;;;;;;4.85;1.80;;;3.40;99.90;;;;;;5084532;27;20359;-80
2023/01/18 05:54:19;;;;;;;6.45;1.88;;;3.60;99.90;;;;;;5113234;27;20062;-80
2023/01/18 05:56:45;;;;;;;7.32;1.92;;;3.50;99.90;;;;;;5095126;27;20468;-80
2023/01/18 05:59:13;;;;;;;4.05;1.80;;;3.50;99.90;;;;;;5084711;27;20047;-81
2023/01/18 06:01:39;;;;;;;4.50;1.65;;;3.50;99.90;;;;;;5083277;27;20050;-80
2023/01/18 06:04:05;;;;;;;7.95;2.20;;;3.50;99.90;;;;;;5078280;27;20035;-83
2023/01/18 06:06:31;;;;;;;4.22;1.95;;;3.50;99.90;;;;;;5084791;27;20043;-79
2023/01/18 06:09:00;;;;;;;7.13;2.13;;;3.50;99.90;;;;;;5085764;27;20050;-83
2023/01/18 06:11:26;;;;;;;4.43;1.80;;;3.50;99.90;;;;;;5104434;27;20039;-82
2023/01/18 06:13:55;;;;;;;5.45;2.17;;;3.40;99.90;;;;;;5083047;27;22073;-83
2023/01/18 06:16:23;;;;;;;4.32;1.42;;;3.50;99.90;;;;;;5086660;27;20069;-82
2023/01/18 06:18:54;;;;;;;3.83;1.73;;;3.40;99.90;;;;;;5114072;27;20050;-82
2023/01/18 06:21:29;;;;;;;7.78;1.80;;;4.90;99.90;;;;;;5132497;27;20047;-83
2023/01/18 06:23:55;;;;;;;4.97;2.10;;;2.60;99.90;;;;;;5072204;27;20053;-84
2023/01/18 06:26:22;;;;;;;3.22;1.35;;;3.40;99.90;;;;;;5121177;27;20495;-83
2023/01/18 06:28:48;;;;;;;4.28;1.52;;;3.40;99.90;;;;;;5081583;27;20078;-82
2023/01/18 06:31:14;;;;;;;6.35;1.40;;;3.40;99.90;;;;;;5086789;27;20824;-82
2023/01/18 06:33:41;;;;;;;6.65;1.60;;;3.40;99.90;;;;;;5100036;27;20399;-81
2023/01/18 06:36:15;;;;;;;4.25;1.35;;;3.40;99.90;;;;;;5101350;27;20061;-86
2023/01/18 06:38:41;;;;;;;3.65;1.10;;;3.40;99.90;;;;;;5102736;27;20051;-82
2023/01/18 06:41:08;;;;;;;4.03;1.67;;;3.50;99.90;;;;;;5119455;27;20114;-82
2023/01/18 06:43:36;;;;;;;4.55;1.30;;;3.70;99.90;;;;;;5102710;27;20079;-83
2023/01/18 06:46:08;;;;;;;2.65;1.13;;;3.50;99.90;;;;;;5126701;27;20053;-83
2023/01/18 06:48:34;;;;;;;4.95;1.27;;;3.90;99.90;;;;;;5101451;27;20126;-83
2023/01/18 06:51:01;;;;;;;3.13;1.30;;;3.50;99.90;;;;;;5070869;27;20059;-82
2023/01/18 06:53:27;;;;;;;6.45;1.95;;;3.50;99.90;;;;;;5091586;27;20127;-81
2023/01/18 06:55:58;;;;;;;7.07;1.73;;;3.50;99.90;;;;;;5086074;27;20140;-81
2023/01/18 06:58:25;;;;;;;4.78;1.38;;;3.50;99.90;;;;;;5099703;27;20050;-82
2023/01/18 07:00:57;;;;;;;5.88;1.50;;;3.50;99.90;;;;;;5114142;27;20043;-81
2023/01/18 07:03:24;;;;;;;3.95;1.42;;;3.50;99.90;;;;;;5103412;27;20043;-81
2023/01/18 07:05:54;;;;;;;3.40;1.40;;;2.50;99.90;;;;;;5106527;27;20046;-80
2023/01/18 07:08:21;;;;;;;4.70;1.30;;;3.50;99.90;;;;;;5095725;27;20043;-80
2023/01/18 07:10:48;;;;;;;2.00;1.10;;;3.50;99.90;;;;;;5105311;27;20035;-81
2023/01/18 07:13:19;;;;;;;4.35;1.70;;;3.60;99.90;;;;;;5099965;27;20073;-82
2023/01/18 07:15:56;;;;;;;6.82;1.67;;;3.50;99.90;;;;;;5104168;27;20157;-80
2023/01/18 07:18:22;;;;;;;4.90;1.45;;;3.50;99.90;;;;;;5097929;27;20823;-80
2023/01/18 07:20:58;;;;;;;3.33;1.30;;;3.50;99.90;;;;;;5091522;27;20047;-80
2023/01/18 07:23:25;;;;;;;3.78;1.65;;;3.50;99.90;;;;;;5098924;27;20131;-81
2023/01/18 07:26:15;;;;;;;6.53;1.80;;;3.50;99.90;;;;;;5105725;27;20120;-81
2023/01/18 07:28:42;;;;;;;3.15;1.33;;;3.80;99.90;;;;;;5116619;27;20074;-82
2023/01/18 07:31:09;;;;;;;5.35;1.45;;;3.50;99.90;;;;;;5086060;27;20078;-81
2023/01/18 07:33:37;;;;;;;5.30;1.73;;;3.20;99.90;;;;;;5097180;27;20046;-81
2023/01/18 07:36:05;;;;;;;5.05;1.70;;;3.50;99.90;;;;;;5096922;27;20051;-82
2023/01/18 07:38:32;;;;;;;4.15;1.45;;;3.50;99.90;;;;;;5105162;27;20060;-80
2023/01/18 07:41:07;;;;;;;4.97;1.27;;;3.50;99.90;;;;;;5106491;27;20199;-85
2023/01/18 07:43:41;;;;;;;4.10;1.67;;;3.60;99.90;;;;;;5104546;27;20046;-85
2023/01/18 07:46:28;;;;;;;;;;;;;;;;;;;;;
2023/01/18 07:49:04;;;;;;;5.78;1.50;;;3.10;99.90;;;;;;5109910;27;20070;-85
2023/01/18 07:51:50;;;;;;;;;;;;;;;;;;;;;
2023/01/18 07:54:42;;;;;;;5.35;1.52;;;3.60;99.90;;;;;;5097625;27;20046;-87
2023/01/18 07:57:26;;;;;;;4.00;1.20;;;4.30;99.90;;;;;;5110026;27;20047;-84
2023/01/18 07:59:52;;;;;;;4.22;1.17;;;3.00;99.90;;;;;;5093608;27;20127;-82
2023/01/18 08:02:18;;;;;;;3.38;1.15;;;3.40;99.90;;;;;;5078727;27;20047;-85
2023/01/18 08:04:48;;;;;;;3.40;1.30;;;3.20;99.90;;;;;;5100257;27;20051;-84
2023/01/18 08:07:44;;;;;;;;;;;;;;;;;;;;;
2023/01/18 08:10:19;;;;;;;5.20;1.20;;;2.10;99.90;;;;;;5114369;27;20043;-85
2023/01/18 08:12:48;;;;;;;5.13;1.20;;;3.20;99.90;;;;;;5099787;27;20035;-85
2023/01/18 08:15:23;;;;;;;5.53;1.40;;;2.20;99.90;;;;;;5090574;27;20047;-85
2023/01/18 08:17:54;;;;;;;2.60;1.20;;;3.10;99.90;;;;;;5112399;27;20047;-85
2023/01/18 08:20:22;;;;;;;4.65;1.40;;;3.60;99.90;;;;;;5098981;27;20523;-87
2023/01/18 08:22:55;;;;;;;3.58;1.40;;;3.00;99.90;;;;;;5110819;27;20051;-82
2023/01/18 08:25:29;;;;;;;4.95;1.75;;;3.20;99.90;;;;;;5101520;27;20167;-83
2023/01/18 08:28:01;;;;;;;2.50;1.30;;;3.60;99.90;;;;;;5098740;28;20083;-82
2023/01/18 08:30:36;;;;;;;5.82;1.17;;;3.30;99.90;;;;;;5094523;28;20041;-82
2023/01/18 08:33:14;;;;;;;3.72;1.30;;;3.30;99.90;;;;;;5111219;28;20039;-86
2023/01/18 08:35:48;;;;;;;4.97;1.63;;;3.50;99.90;;;;;;5099375;28;20047;-84
2023/01/18 08:38:15;;;;;;;6.20;1.48;;;2.20;99.90;;;;;;5107502;27;20048;-84
2023/01/18 08:40:44;;;;;;;5.85;2.05;;;2.80;99.90;;;;;;5117331;27;20047;-84
2023/01/18 08:43:13;;;;;;;4.28;1.42;;;3.40;99.90;;;;;;5104028;27;20123;-87
2023/01/18 08:45:42;;;;;;;5.03;1.70;;;3.50;99.90;;;;;;5101703;27;20047;-82
2023/01/18 08:48:10;;;;;;;2.40;1.40;;;3.60;99.90;;;;;;5065969;27;20035;-81
2023/01/18 08:50:38;;;;;;;4.63;1.33;;;3.50;99.90;;;;;;5099673;27;20047;-82
2023/01/18 08:53:04;;;;;;;2.55;1.30;;;3.50;99.90;;;;;;5105274;27;20090;-83
2023/01/18 08:55:30;;;;;;;6.57;1.95;;;2.40;99.90;;;;;;5084952;27;20395;-83
2023/01/18 08:57:57;;;;;;;3.28;1.25;;;3.60;99.90;;;;;;5104108;27;20177;-82
2023/01/18 09:00:24;;;;;;;3.65;1.33;;;4.50;99.90;;;;;;5086674;27;20567;-82
2023/01/18 09:02:50;;;;;;;5.05;1.60;;;5.40;99.90;;;;;;5089648;27;20044;-83
2023/01/18 09:05:21;;;;;;;3.22;1.50;;;6.40;99.90;;;;;;5106832;27;20166;-84
2023/01/18 09:07:50;;;;;;;4.22;1.60;;;7.30;99.90;;;;;;5122394;27;20055;-84
2023/01/18 09:10:16;;;;;;;3.20;1.40;;;8.40;99.90;;;;;;5107112;27;20075;-83
2023/01/18 09:12:41;;;;;;;3.35;1.60;;;8.40;99.90;;;;;;5098686;27;20432;-83
2023/01/18 09:15:15;;;;;;;8.35;1.98;;;9.10;99.90;;;;;;5084613;27;20484;-84
2023/01/18 09:17:44;;;;;;;5.00;2.22;;;9.10;99.90;;;;;;5091385;27;20510;-84
2023/01/18 09:20:11;;;;;;;4.88;1.70;;;8.80;99.90;;;;;;5115013;27;20067;-83
2023/01/18 09:22:38;;;;;;;3.00;1.60;;;8.30;99.90;;;;;;5082251;27;20074;-84
2023/01/18 09:25:05;;;;;;;5.38;2.03;;;6.10;99.90;;;;;;5099321;27;20082;-83
2023/01/18 09:27:31;;;;;;;6.85;1.80;;;7.00;99.90;;;;;;5111422;27;20062;-84
2023/01/18 09:29:59;;;;;;;5.35;1.52;;;6.90;99.90;;;;;;5104588;27;20704;-83
2023/01/18 09:32:30;;;;;;;4.05;1.48;;;7.20;99.90;;;;;;5085853;27;20041;-89
2023/01/18 09:34:56;;;;;;;3.67;1.55;;;7.60;99.90;;;;;;5102424;27;20075;-85
2023/01/18 09:37:25;;;;;;;4.00;1.42;;;8.20;99.90;;;;;;5116834;27;20051;-84
2023/01/18 09:39:59;;;;;;;4.03;1.92;;;8.30;99.90;;;;;;5089805;27;20043;-84
2023/01/18 09:42:33;;;;;;;6.53;1.63;;;6.70;99.90;;;;;;5086081;27;20118;-84
2023/01/18 09:45:00;;;;;;;4.13;1.45;;;;;;;;;;5105739;27;20051;-83
2023/01/18 09:47:30;;;;;;;3.15;1.58;;;7.60;99.90;;;;;;5106972;27;20453;-84
2023/01/18 09:50:01;;;;;;;5.28;1.75;;;7.40;99.90;;;;;;5103203;27;20046;-83
2023/01/18 09:52:48;;;;;;;4.30;1.33;;;6.60;99.90;;;;;;5097449;27;20152;-84
2023/01/18 09:55:24;;;;;;;5.75;1.50;;;7.20;99.90;;;;;;5106628;27;20181;-83
2023/01/18 09:58:21;;;;;;;5.75;1.38;;;6.90;99.90;;;;;;5105888;27;20039;-83
2023/01/18 10:00:48;;;;;;;5.10;1.52;;;6.90;99.90;;;;;;5114998;27;20142;-82
2023/01/18 10:03:22;;;;;;;5.63;1.98;;;6.80;99.90;;;;;;5085914;27;20059;-83
2023/01/18 10:06:14;;;;;;;3.47;1.60;;;6.80;99.90;;;;;;5101019;27;20047;-83
2023/01/18 10:08:58;;;;;;;3.28;1.38;;;7.20;99.90;;;;;;5108048;27;20117;-83
2023/01/18 10:11:46;;;;;;;4.82;2.05;;;7.60;99.90;;;;;;5101200;27;20059;-82
2023/01/18 10:14:23;;;;;;;6.70;1.70;;;7.40;99.90;;;;;;5104284;27;20051;-82
2023/01/18 10:17:00;;;;;;;2.70;1.52;;;7.40;99.90;;;;;;5112877;27;20507;-82
2023/01/18 10:19:29;;;;;;;5.93;1.35;;;7.90;99.90;;;;;;5097541;27;20040;-82
2023/01/18 10:22:24;;;;;;;6.13;1.42;;;7.90;99.90;;;;;;5115650;27;20051;-83
2023/01/18 10:25:17;;;;;;;6.43;1.33;;;7.60;99.90;;;;;;5094750;27;20047;-81
2023/01/18 10:28:25;;;;;;;3.13;1.23;;;7.10;99.90;;;;;;5099525;27;20130;-84
2023/01/18 10:31:13;;;;;;;;;;;7.00;99.90;;;;;;5102914;27;20035;-82
2023/01/18 10:33:41;;;;;;;5.30;1.30;;;6.60;99.90;;;;;;5106931;27;19923;-83
2023/01/18 10:36:15;;;;;;;4.13;1.45;;;6.50;99.90;;;;;;5106690;27;20130;-83
2023/01/18 10:38:42;;;;;;;4.53;1.30;;;6.30;99.90;;;;;;5103111;27;20047;-83
2023/01/18 10:41:18;;;;;;;3.88;1.20;;;6.50;99.90;;;;;;5084967;27;20127;-83
2023/01/18 10:43:45;;;;;;;3.20;1.30;;;6.50;99.90;;;;;;5116090;27;20832;-84
2023/01/18 10:46:19;;;;;;;4.88;1.50;;;7.10;99.90;;;;;;5099238;27;20553;-84
2023/01/18 10:48:47;;;;;;;4.28;1.30;;;8.00;99.90;;;;;;5098098;27;20140;-84
2023/01/18 10:51:36;;;;;;;3.58;1.40;;;9.00;99.90;;;;;;5097518;27;20054;-82
2023/01/18 10:54:17;;;;;;;3.78;1.45;;;9.70;99.90;;;;;;5113645;27;20043;-83
2023/01/18 10:56:43;;;;;;;6.25;1.40;;;9.80;99.90;;;;;;5103396;27;20274;-83
2023/01/18 10:59:32;;;;;;;6.15;1.55;;;9.30;99.90;;;;;;5085850;27;20083;-84
2023/01/18 11:02:01;;;;;;;7.97;1.52;;;8.60;99.90;;;;;;5088266;27;20118;-84
2023/01/18 11:04:30;;;;;;;4.95;1.30;;;7.90;99.90;;;;;;5082334;27;20058;-84
2023/01/18 11:07:05;;;;;;;4.57;1.38;;;7.80;99.90;;;;;;5110656;27;20047;-84
2023/01/18 11:09:47;;;;;;;3.60;1.23;;;7.50;99.90;;;;;;5078011;27;20039;-85
2023/01/18 11:12:37;;;;;;;5.07;1.20;;;7.10;99.90;;;;;;5101764;28;20051;-83
2023/01/18 11:15:24;;;;;;;2.20;1.10;;;6.70;99.90;;;;;;5100605;27;20042;-84
2023/01/18 11:17:59;;;;;;;3.05;1.20;;;6.50;99.90;;;;;;5099568;27;20039;-85
2023/01/18 11:20:50;;;;;;;4.93;1.30;;;6.40;99.90;;;;;;5113985;27;20054;-84
2023/01/18 11:23:36;;;;;;;5.75;1.50;;;6.20;99.90;;;;;;5110825;27;20079;-80
2023/01/18 11:26:03;;;;;;;7.63;1.58;;;;;;;;;;5095307;27;20051;-82
2023/01/18 11:28:48;;;;;;;7.18;1.35;;;6.20;99.90;;;;;;5101594;27;20202;-82
2023/01/18 11:31:20;;;;;;;4.13;1.30;;;6.10;99.90;;;;;;5105924;27;20055;-83
2023/01/18 11:34:06;;;;;;;4.57;1.48;;;6.10;99.90;;;;;;5102499;27;20395;-82
2023/01/18 11:36:42;;;;;;;7.22;1.25;;;6.00;99.90;;;;;;5106228;27;20406;-84
2023/01/18 11:39:34;;;;;;;6.00;1.58;;;5.90;99.90;;;;;;5104534;27;20111;-83
2023/01/18 11:42:19;;;;;;;6.57;1.55;;;5.90;99.90;;;;;;5102424;27;20138;-85
2023/01/18 11:45:13;;;;;;;5.63;1.42;;;6.30;99.90;;;;;;5104352;27;20399;-84
2023/01/18 11:48:06;;;;;;;4.18;1.15;;;6.00;99.90;;;;;;5106483;27;20099;-83
2023/01/18 11:50:46;;;;;;;6.25;1.30;;;7.70;99.90;;;;;;5103297;27;20393;-85
2023/01/18 11:53:47;;;;;;;3.35;1.17;;;4.50;99.90;;;;;;5102961;27;20404;-85
2023/01/18 11:56:19;;;;;;;6.43;0.98;;;6.00;99.90;;;;;;5101160;27;20103;-82
2023/01/18 11:58:48;;;;;;;6.60;1.00;;;5.90;99.90;;;;;;5101264;27;20108;-82
2023/01/18 12:01:51;;;;;;;3.92;1.58;;;5.80;99.90;;;;;;5099791;27;20089;-85
2023/01/18 12:04:54;;;;;;;4.57;1.10;;;5.80;99.90;;;;;;5119186;27;20059;-87
2023/01/18 12:07:56;;;;;;;3.90;1.65;;;5.70;99.90;;;;;;5105983;27;20042;-82
2023/01/18 12:10:24;;;;;;;6.65;1.45;;;4.60;99.90;;;;;;5107894;27;20051;-82
2023/01/18 12:13:11;;;;;;;4.40;1.00;;;5.60;99.90;;;;;;5090236;27;20047;-81
2023/01/18 12:15:57;;;;;;;5.07;1.27;;;5.40;99.90;;;;;;5102319;27;20047;-83
2023/01/18 12:18:41;;;;;;;5.53;1.60;;;5.40;99.90;;;;;;5103049;27;20047;-80
2023/01/18 12:21:31;;;;;;;4.78;1.20;;;5.50;99.90;;;;;;5110659;27;20451;-84
2023/01/18 12:24:09;;;;;;;3.22;1.10;;;5.50;99.90;;;;;;5107429;27;20055;-83
2023/01/18 12:26:52;;;;;;;6.78;1.20;;;6.50;99.90;;;;;;5101549;27;20380;-82
2023/01/18 12:29:44;;;;;;;5.40;1.50;;;5.30;99.90;;;;;;5095842;27;20045;-82
2023/01/18 12:32:47;;;;;;;4.75;1.00;;;5.20;99.90;;;;;;5107574;27;20042;-81
2023/01/18 12:35:22;;;;;;;6.82;1.75;;;4.10;99.90;;;;;;5101111;27;20050;-82
2023/01/18 12:37:57;;;;;;;4.95;1.55;;;4.70;99.90;;;;;;5106510;27;20100;-82
2023/01/18 12:40:30;;;;;;;5.28;0.93;;;5.10;99.90;;;;;;5103186;27;20430;-83
2023/01/18 12:43:12;;;;;;;3.85;1.02;;;4.50;99.90;;;;;;5107806;27;20043;-82
2023/01/18 12:45:45;;;;;;;7.53;1.48;;;4.10;99.90;;;;;;5108233;27;20484;-84
2023/01/18 12:48:28;;;;;;;8.45;1.33;;;5.10;99.90;;;;;;5121786;27;20134;-85
2023/01/18 12:50:56;;;;;;;4.47;1.20;;;5.00;99.90;;;;;;5117903;27;20057;-85
2023/01/18 12:53:52;;;;;;;3.80;1.45;;;5.00;99.90;;;;;;5106936;27;20039;-85
2023/01/18 12:56:34;;;;;;;6.10;1.25;;;5.10;99.90;;;;;;5100711;27;20067;-82
2023/01/18 12:59:10;;;;;;;5.40;0.98;;;5.00;99.90;;;;;;5100863;27;20100;-82
2023/01/18 13:01:43;;;;;;;4.90;1.30;;;5.00;99.90;;;;;;5105435;27;20141;-82
2023/01/18 13:04:24;;;;;;;2.78;1.30;;;5.00;99.90;;;;;;5105719;27;20062;-82
2023/01/18 13:06:55;;;;;;;4.72;1.30;;;5.00;99.90;;;;;;5104857;27;20146;-82
2023/01/18 13:09:26;;;;;;;5.88;1.15;;;5.00;99.90;;;;;;5099515;27;20166;-81
2023/01/18 13:11:52;;;;;;;6.15;1.13;;;4.60;99.90;;;;;;5106035;27;20047;-83
2023/01/18 13:14:38;;;;;;;5.78;1.50;;;5.00;99.90;;;;;;5071912;27;20422;-80
2023/01/18 13:17:16;;;;;;;11.52;1.50;;;5.10;99.90;;;;;;5098253;27;20051;-84
2023/01/18 13:20:06;;;;;;;2.90;1.30;;;3.60;99.90;;;;;;5100169;27;20051;-82
2023/01/18 13:23:06;;;;;;;4.82;1.30;;;5.00;99.90;;;;;;5098584;27;20043;-82
2023/01/18 13:26:06;;;;;;;7.30;1.30;;;5.30;99.90;;;;;;5101097;27;20648;-82
2023/01/18 13:28:32;;;;;;;4.10;1.10;;;5.60;99.90;;;;;;5098967;27;20062;-83
2023/01/18 13:31:04;;;;;;;12.32;1.80;;;5.40;99.90;;;;;;5095995;27;20039;-81
2023/01/18 13:33:34;;;;;;;8.52;1.67;;;6.20;99.90;;;;;;5095296;27;20074;-81
2023/01/18 13:36:10;;;;;;;5.88;1.65;;;5.20;99.90;;;;;;5091286;27;20096;-80
2023/01/18 13:39:00;;;;;;;8.82;1.95;;;4.90;99.90;;;;;;5099820;27;20112;-83
2023/01/18 13:41:28;;;;;;;10.32;1.92;;;4.70;99.90;;;;;;5113887;27;20100;-83
2023/01/18 13:44:04;;;;;;;5.78;1.73;;;4.50;99.90;;;;;;5096926;27;20048;-84
2023/01/18 13:46:35;;;;;;;5.70;1.98;;;4.40;99.90;;;;;;5103645;27;20051;-80
2023/01/18 13:49:36;;;;;;;4.90;1.40;;;4.40;99.90;;;;;;5100845;27;20512;-82
2023/01/18 13:52:22;;;;;;;7.65;1.75;;;4.40;99.90;;;;;;5101104;27;20080;-80
2023/01/18 13:54:47;;;;;;;8.15;1.50;;;4.30;99.90;;;;;;5095784;27;20076;-81
2023/01/18 13:57:16;;;;;;;5.00;1.50;;;4.40;99.90;;;;;;5101005;27;20164;-81
2023/01/18 13:59:48;;;;;;;10.10;1.20;;;4.30;99.90;;;;;;5111040;27;20062;-82
2023/01/18 14:02:40;;;;;;;4.18;0.95;;;4.30;99.90;;;;;;5101396;27;20043;-81
2023/01/18 14:05:18;;;;;;;3.65;1.20;;;4.30;99.90;;;;;;5096991;27;20053;-81
2023/01/18 14:07:51;;;;;;;5.35;1.30;;;4.20;99.90;;;;;;5109332;27;20621;-80
2023/01/18 14:10:54;;;;;;;4.47;1.30;;;4.20;99.90;;;;;;5101297;27;20126;-80